createdAt,value
2022-10-29T00:00:25.531Z,4.15
2022-10-29T00:03:11.852Z,5.20
2022-10-29T00:06:02.140Z,5.55
2022-10-29T00:08:47.637Z,4.22
2022-10-29T00:11:48.449Z,4.10
2022-10-29T00:14:44.388Z,3.80
2022-10-29T00:17:36.753Z,4.43
2022-10-29T00:20:32.319Z,3.83
2022-10-29T00:23:35.635Z,3.55
2022-10-29T00:26:30.728Z,5.05
2022-10-29T00:29:17.882Z,3.45
2022-10-29T00:32:03.707Z,3.00
2022-10-29T00:34:49.296Z,2.72
2022-10-29T00:37:35.821Z,3.40
2022-10-29T00:40:21.311Z,3.05
2022-10-29T00:43:48.735Z,2.92
2022-10-29T00:47:18.692Z,2.72
2022-10-29T00:50:17.992Z,3.28
2022-10-29T00:53:04.017Z,2.88
2022-10-29T00:55:49.830Z,4.43
2022-10-29T00:58:49.199Z,2.97
2022-10-29T01:01:52.215Z,3.70
2022-10-29T01:04:48.419Z,4.10
2022-10-29T01:07:47.588Z,4.50
2022-10-29T01:11:02.575Z,2.85
2022-10-29T01:14:21.011Z,4.05
2022-10-29T01:17:32.658Z,3.13
2022-10-29T01:20:29.825Z,3.63
2022-10-29T01:23:52.414Z,3.80
2022-10-29T01:27:03.393Z,2.50
2022-10-29T01:30:47.957Z,3.05
2022-10-29T01:34:02.410Z,2.45
2022-10-29T01:37:15.184Z,3.20
2022-10-29T01:40:08.012Z,2.95
2022-10-29T01:43:17.915Z,3.40
2022-10-29T01:46:16.253Z,2.80
2022-10-29T01:49:13.099Z,3.33
2022-10-29T01:52:21.993Z,2.63
2022-10-29T01:55:43.802Z,3.42
2022-10-29T01:59:03.787Z,2.70
2022-10-29T02:02:12.632Z,3.15
2022-10-29T02:05:15.932Z,3.17
2022-10-29T02:08:24.380Z,2.70
2022-10-29T02:11:35.737Z,2.90
2022-10-29T02:14:35.870Z,2.92
2022-10-29T02:17:23.337Z,3.03
2022-10-29T02:20:11.241Z,3.22
2022-10-29T02:22:59.187Z,3.13
2022-10-29T02:25:51.671Z,3.10
2022-10-29T02:28:37.243Z,2.53
2022-10-29T02:31:22.844Z,2.45
2022-10-29T02:34:08.449Z,2.53
2022-10-29T02:36:54.056Z,3.05
2022-10-29T02:39:39.622Z,2.40
2022-10-29T02:42:25.070Z,3.38
2022-10-29T02:45:10.806Z,2.97
2022-10-29T02:47:56.326Z,2.65
2022-10-29T02:50:41.496Z,3.08
2022-10-29T02:53:27.044Z,4.35
2022-10-29T02:56:12.819Z,2.75
2022-10-29T02:58:58.324Z,2.42
2022-10-29T03:01:43.768Z,2.42
2022-10-29T03:04:29.060Z,2.97
2022-10-29T03:07:14.392Z,2.28
2022-10-29T03:09:59.937Z,4.93
2022-10-29T03:12:45.444Z,2.80
2022-10-29T03:15:30.835Z,2.92
2022-10-29T03:18:16.295Z,2.88
2022-10-29T03:21:01.697Z,3.15
2022-10-29T03:23:46.962Z,4.65
2022-10-29T03:26:32.350Z,2.53
2022-10-29T03:29:17.883Z,3.22
2022-10-29T03:32:03.512Z,2.50
2022-10-29T03:34:48.987Z,2.47
2022-10-29T03:37:34.385Z,3.30
2022-10-29T03:40:20.353Z,3.03
2022-10-29T03:43:05.807Z,2.38
2022-10-29T03:45:55.959Z,2.10
2022-10-29T03:48:41.259Z,1.60
2022-10-29T03:51:26.892Z,2.35
2022-10-29T03:54:12.440Z,2.40
2022-10-29T03:56:58.005Z,2.78
2022-10-29T03:59:45.918Z,2.50
2022-10-29T04:02:33.957Z,2.05
2022-10-29T04:05:19.297Z,2.58
2022-10-29T04:08:04.946Z,2.50
2022-10-29T04:10:51.420Z,2.45
2022-10-29T04:13:47.865Z,2.78
2022-10-29T04:16:35.401Z,2.05
2022-10-29T04:19:21.126Z,2.67
2022-10-29T04:28:42.585Z,2.33
2022-10-29T04:31:23.388Z,2.30
2022-10-29T04:34:08.928Z,2.75
2022-10-29T04:36:54.348Z,3.38
2022-10-29T04:39:39.631Z,2.13
2022-10-29T04:42:25.274Z,2.30
2022-10-29T04:45:10.844Z,3.00
2022-10-29T04:48:01.050Z,2.97
2022-10-29T04:50:46.465Z,3.30
2022-10-29T04:53:34.808Z,2.47
2022-10-29T04:56:26.822Z,2.93
2022-10-29T04:59:13.405Z,3.00
2022-10-29T05:01:58.940Z,2.75
2022-10-29T05:04:44.553Z,2.47
2022-10-29T05:07:29.884Z,2.13
2022-10-29T05:10:15.460Z,1.92
2022-10-29T05:13:08.000Z,3.47
2022-10-29T05:15:53.712Z,3.10
2022-10-29T05:18:42.909Z,1.90
2022-10-29T05:21:30.929Z,2.60
2022-10-29T05:24:20.660Z,2.40
2022-10-29T05:27:12.821Z,2.63
2022-10-29T05:29:58.358Z,2.45
2022-10-29T05:32:44.540Z,2.28
2022-10-29T05:35:30.049Z,3.03
2022-10-29T05:38:16.716Z,2.67
2022-10-29T05:41:02.164Z,2.10
2022-10-29T05:43:50.541Z,2.80
2022-10-29T05:46:51.022Z,2.22
2022-10-29T05:49:36.757Z,2.70
2022-10-29T05:52:23.288Z,2.35
2022-10-29T05:55:09.072Z,2.42
2022-10-29T05:58:03.850Z,2.72
2022-10-29T06:00:49.349Z,3.17
2022-10-29T06:03:35.294Z,2.65
2022-10-29T06:06:20.455Z,3.35
2022-10-29T06:09:06.015Z,2.45
2022-10-29T06:11:52.638Z,3.20
2022-10-29T06:14:38.120Z,2.80
2022-10-29T06:17:23.752Z,2.70
2022-10-29T06:20:11.161Z,2.90
2022-10-29T06:22:58.553Z,3.40
2022-10-29T06:25:44.456Z,3.13
2022-10-29T06:28:33.662Z,3.35
2022-10-29T06:31:20.302Z,3.33
2022-10-29T06:34:05.874Z,3.40
2022-10-29T06:36:51.285Z,2.92
2022-10-29T06:39:36.922Z,3.25
2022-10-29T06:42:22.265Z,3.20
2022-10-29T06:45:08.348Z,3.92
2022-10-29T06:47:54.288Z,4.72
2022-10-29T06:50:39.976Z,3.92
2022-10-29T06:53:26.056Z,4.18
2022-10-29T06:56:11.636Z,4.38
2022-10-29T06:58:57.084Z,4.13
2022-10-29T07:01:42.848Z,4.88
2022-10-29T07:04:28.181Z,4.53
2022-10-29T07:07:14.123Z,4.00
2022-10-29T07:09:59.673Z,4.15
2022-10-29T07:12:45.601Z,4.35
2022-10-29T07:15:31.580Z,5.13
2022-10-29T07:18:17.124Z,4.43
2022-10-29T07:21:03.863Z,5.22
2022-10-29T07:23:49.117Z,4.50
2022-10-29T07:26:35.370Z,4.72
2022-10-29T07:29:20.773Z,5.22
2022-10-29T07:32:06.253Z,4.13
2022-10-29T07:34:51.882Z,5.25
2022-10-29T07:37:37.604Z,5.53
2022-10-29T07:40:22.670Z,5.57
2022-10-29T07:43:09.392Z,5.10
2022-10-29T07:45:54.859Z,5.47
2022-10-29T07:48:40.453Z,6.10
2022-10-29T07:51:26.150Z,5.65
2022-10-29T07:54:14.735Z,4.90
2022-10-29T07:57:00.368Z,5.47
2022-10-29T07:59:47.054Z,5.32
2022-10-29T08:02:32.451Z,5.03
2022-10-29T08:05:17.820Z,5.65
2022-10-29T08:08:03.933Z,6.10
2022-10-29T08:10:49.318Z,4.75
2022-10-29T08:13:35.110Z,5.88
2022-10-29T08:16:20.331Z,5.18
2022-10-29T08:19:05.850Z,4.93
2022-10-29T08:21:51.614Z,4.88
2022-10-29T08:24:36.701Z,5.97
2022-10-29T08:27:22.534Z,6.25
2022-10-29T08:30:09.494Z,5.15
2022-10-29T08:32:55.373Z,4.60
2022-10-29T08:35:40.751Z,4.55
2022-10-29T08:38:27.321Z,5.43
2022-10-29T08:41:28.281Z,5.40
2022-10-29T08:44:45.044Z,4.85
2022-10-29T08:47:51.684Z,4.75
2022-10-29T08:50:44.690Z,5.35
2022-10-29T08:53:45.354Z,5.55
2022-10-29T08:56:36.173Z,4.65
2022-10-29T08:59:24.942Z,5.00
2022-10-29T09:02:18.422Z,5.93
2022-10-29T09:05:04.091Z,5.15
2022-10-29T09:08:27.248Z,5.25
2022-10-29T09:11:31.297Z,5.50
2022-10-29T09:14:50.209Z,5.45
2022-10-29T09:18:04.649Z,4.30
2022-10-29T09:21:22.456Z,5.65
2022-10-29T09:24:15.083Z,5.22
2022-10-29T09:27:10.629Z,4.95
2022-10-29T09:29:58.941Z,4.40
2022-10-29T09:33:05.002Z,5.15
2022-10-29T09:35:56.124Z,4.80
2022-10-29T09:38:56.333Z,4.75
2022-10-29T09:41:42.059Z,5.78
2022-10-29T10:51:31.250Z,4.93
2022-10-29T10:54:31.378Z,4.65
2022-10-29T10:57:23.039Z,5.65
2022-10-29T11:00:19.649Z,5.13
2022-10-29T11:03:21.725Z,5.93
2022-10-29T11:06:08.759Z,4.67
2022-10-29T11:09:00.257Z,4.78
2022-10-29T11:11:58.862Z,4.93
2022-10-29T11:15:06.573Z,4.75
2022-10-29T11:18:18.589Z,5.38
2022-10-29T11:21:23.201Z,4.93
2022-10-29T11:24:26.098Z,5.07
2022-10-29T11:27:24.316Z,5.93
2022-10-29T11:30:13.530Z,4.50
2022-10-29T11:33:02.137Z,5.88
2022-10-29T11:36:01.544Z,5.40
2022-10-29T11:39:11.213Z,5.18
2022-10-29T11:42:01.424Z,4.93
2022-10-29T11:44:46.857Z,4.50
2022-10-29T11:47:51.345Z,4.97
2022-10-29T11:51:02.107Z,5.78
2022-10-29T11:53:56.381Z,5.05
2022-10-29T11:56:47.570Z,5.50
2022-10-29T11:59:45.172Z,4.15
2022-10-29T12:02:39.420Z,4.68
2022-10-29T12:05:39.578Z,5.00
2022-10-29T12:08:43.284Z,5.18
2022-10-29T12:11:58.205Z,4.60
2022-10-29T12:14:52.970Z,4.22
2022-10-29T12:18:00.093Z,4.82
2022-10-29T12:21:16.897Z,4.82
2022-10-29T12:24:17.181Z,4.55
2022-10-29T12:27:15.375Z,4.53
2022-10-29T12:30:09.250Z,4.72
2022-10-29T12:32:58.167Z,5.05
2022-10-29T12:35:54.836Z,4.85
2022-10-29T12:38:44.662Z,5.20
2022-10-29T12:41:36.918Z,5.20
2022-10-29T12:44:54.305Z,4.53
2022-10-29T12:47:55.161Z,4.57
2022-10-29T12:50:58.781Z,4.95
2022-10-29T12:54:20.977Z,4.85
2022-10-29T12:57:12.669Z,3.92
2022-10-29T13:00:18.279Z,5.15
2022-10-29T13:03:04.756Z,5.75
2022-10-29T13:05:50.645Z,4.55
2022-10-29T13:08:36.276Z,4.00
2022-10-29T13:11:24.805Z,4.70
2022-10-29T13:14:12.757Z,5.03
2022-10-29T13:16:58.818Z,4.97
2022-10-29T13:19:52.170Z,5.32
2022-10-29T13:22:56.711Z,4.13
2022-10-29T13:25:47.519Z,5.20
2022-10-29T13:28:36.141Z,5.07
2022-10-29T13:31:21.624Z,5.40
2022-10-29T13:34:07.354Z,5.22
2022-10-29T13:36:52.795Z,4.55
2022-10-29T13:39:37.967Z,4.47
2022-10-29T13:42:23.826Z,5.18
2022-10-29T13:45:13.724Z,4.88
2022-10-29T13:48:03.747Z,5.32
2022-10-29T13:50:51.802Z,5.35
2022-10-29T13:53:57.366Z,5.35
2022-10-29T13:57:00.573Z,4.90
2022-10-29T13:59:57.472Z,4.90
2022-10-29T14:02:43.052Z,5.30
2022-10-29T14:05:38.846Z,4.75
2022-10-29T14:08:50.372Z,6.00
2022-10-29T14:11:40.105Z,6.35
2022-10-29T14:14:33.585Z,5.75
2022-10-29T14:17:19.860Z,6.22
2022-10-29T14:20:05.296Z,5.30
2022-10-29T14:22:50.664Z,5.75
2022-10-29T14:25:37.025Z,6.15
2022-10-29T14:28:30.226Z,5.85
2022-10-29T14:31:18.352Z,5.97
2022-10-29T14:34:03.490Z,5.72
2022-10-29T14:36:52.128Z,6.45
2022-10-29T14:39:58.067Z,6.07
2022-10-29T14:42:48.986Z,5.38
2022-10-29T14:45:34.559Z,5.57
2022-10-29T14:48:20.450Z,6.32
2022-10-29T14:51:06.012Z,6.30
2022-10-29T14:54:01.988Z,6.32
2022-10-29T14:56:52.046Z,5.80
2022-10-29T14:59:38.111Z,6.13
2022-10-29T15:02:37.606Z,6.57
2022-10-29T15:05:27.514Z,6.18
2022-10-29T15:08:24.146Z,6.95
2022-10-29T15:11:34.396Z,5.97
2022-10-29T15:14:38.872Z,6.60
2022-10-29T15:17:28.448Z,6.95
2022-10-29T15:20:32.873Z,6.57
2022-10-29T15:23:38.158Z,7.20
2022-10-29T15:26:23.585Z,7.32
2022-10-29T15:29:11.968Z,7.32
2022-10-29T15:31:57.948Z,7.25
2022-10-29T15:34:49.707Z,6.47
2022-10-29T15:37:46.061Z,6.05
2022-10-29T15:40:31.297Z,5.88
2022-10-29T15:43:30.220Z,8.13
2022-10-29T15:46:30.757Z,6.03
2022-10-29T15:49:16.478Z,7.90
2022-10-29T15:52:03.616Z,7.57
2022-10-29T15:54:49.314Z,8.25
2022-10-29T15:57:35.032Z,7.50
2022-10-29T16:00:22.665Z,7.95
2022-10-29T16:03:18.116Z,7.50
2022-10-29T16:06:06.367Z,7.20
2022-10-29T16:08:57.288Z,8.02
2022-10-29T16:11:42.683Z,8.32
2022-10-29T16:14:28.344Z,7.28
2022-10-29T16:17:19.678Z,7.32
2022-10-29T16:20:05.694Z,7.50
2022-10-29T16:22:51.204Z,6.93
2022-10-29T16:25:37.021Z,8.90
2022-10-29T16:28:22.451Z,7.65
2022-10-29T16:31:24.862Z,7.10
2022-10-29T16:34:13.522Z,7.70
2022-10-29T16:36:58.949Z,7.60
2022-10-29T16:39:45.065Z,8.00
2022-10-29T16:42:34.175Z,8.35
2022-10-29T16:45:22.201Z,8.27
2022-10-29T16:48:07.806Z,8.30
2022-10-29T16:50:53.129Z,7.72
2022-10-29T16:53:38.711Z,7.93
2022-10-29T16:56:24.285Z,7.72
2022-10-29T16:59:09.656Z,8.60
2022-10-29T17:01:55.031Z,8.20
2022-10-29T17:04:40.691Z,9.25
2022-10-29T17:07:26.054Z,8.35
2022-10-29T17:10:11.768Z,8.05
2022-10-29T17:12:58.288Z,8.60
2022-10-29T17:15:44.297Z,8.40
2022-10-29T17:18:29.771Z,9.60
2022-10-29T17:21:15.229Z,9.05
2022-10-29T17:24:06.736Z,8.20
2022-10-29T17:26:53.973Z,9.52
2022-10-29T17:29:39.952Z,8.15
2022-10-29T17:32:25.262Z,11.30
2022-10-29T17:35:11.038Z,8.93
2022-10-29T17:37:56.470Z,8.88
2022-10-29T17:40:44.627Z,9.38
2022-10-29T17:43:30.222Z,9.55
2022-10-29T17:46:16.206Z,10.02
2022-10-29T17:49:01.557Z,10.23
2022-10-29T17:51:47.044Z,9.18
2022-10-29T17:54:35.066Z,9.23
2022-10-29T17:57:20.846Z,8.57
2022-10-29T18:00:07.138Z,9.50
2022-10-29T18:02:52.837Z,9.15
2022-10-29T18:05:38.457Z,9.32
2022-10-29T18:08:23.972Z,8.60
2022-10-29T18:11:10.659Z,9.18
2022-10-29T18:13:57.308Z,8.98
2022-10-29T18:16:42.968Z,8.65
2022-10-29T18:19:28.336Z,9.90
2022-10-29T18:22:13.867Z,8.48
2022-10-29T18:24:59.209Z,9.00
2022-10-29T18:27:44.819Z,8.80
2022-10-29T18:30:30.322Z,9.15
2022-10-29T18:33:15.869Z,8.10
2022-10-29T18:36:01.422Z,8.93
2022-10-29T18:38:52.616Z,8.10
2022-10-29T18:41:37.914Z,8.10
2022-10-29T18:44:23.558Z,9.25
2022-10-29T18:47:09.260Z,7.93
2022-10-29T18:49:54.538Z,8.23
2022-10-29T18:52:40.012Z,8.63
2022-10-29T18:55:25.700Z,8.75
2022-10-29T18:58:11.029Z,9.02
2022-10-29T19:01:07.522Z,9.43
2022-10-29T19:03:55.637Z,8.65
2022-10-29T19:06:41.662Z,9.13
2022-10-29T19:09:27.392Z,9.80
2022-10-29T19:12:13.196Z,11.73
2022-10-29T19:14:58.470Z,10.30
2022-10-29T19:17:44.024Z,10.60
2022-10-29T19:20:30.654Z,9.75
2022-10-29T19:23:16.331Z,10.02
2022-10-29T19:26:10.455Z,11.05
2022-10-29T19:28:58.349Z,10.23
2022-10-29T19:31:46.160Z,9.52
2022-10-29T19:34:31.611Z,10.13
2022-10-29T19:37:17.112Z,12.75
2022-10-29T19:40:03.008Z,35.38
2022-10-29T19:42:48.616Z,41.97
2022-10-29T19:45:33.863Z,42.15
2022-10-29T19:48:19.346Z,19.50
2022-10-29T19:51:05.037Z,10.65
2022-10-29T19:53:51.644Z,9.30
2022-10-29T19:56:37.335Z,7.72
2022-10-29T19:59:22.933Z,8.30
2022-10-29T20:02:10.472Z,8.95
2022-10-29T20:04:56.048Z,9.25
2022-10-29T20:07:41.810Z,19.88
2022-10-29T20:10:27.552Z,13.57
2022-10-29T20:13:13.155Z,14.27
2022-10-29T20:15:58.826Z,11.05
2022-10-29T20:18:45.051Z,8.60
2022-10-29T20:21:30.521Z,8.40
2022-10-29T20:24:16.057Z,7.93
2022-10-29T20:27:01.719Z,8.68
2022-10-29T20:29:47.232Z,7.88
2022-10-29T20:32:32.946Z,7.32
2022-10-29T20:35:18.362Z,8.88
2022-10-29T20:38:04.034Z,7.55
2022-10-29T20:40:50.916Z,6.53
2022-10-29T20:43:36.304Z,7.93
2022-10-29T20:46:23.035Z,7.35
2022-10-29T20:49:08.154Z,7.68
2022-10-29T20:51:53.649Z,7.35
2022-10-29T20:54:39.302Z,8.85
2022-10-29T20:57:24.847Z,9.70
2022-10-29T21:00:10.972Z,8.70
2022-10-29T21:02:56.321Z,9.07
2022-10-29T21:05:42.151Z,8.82
2022-10-29T21:11:15.508Z,10.32
2022-10-29T21:14:01.143Z,9.60
2022-10-29T21:16:46.870Z,9.63
2022-10-29T21:19:33.152Z,9.82
2022-10-29T21:22:19.239Z,10.90
2022-10-29T21:25:05.446Z,10.00
2022-10-29T21:27:54.351Z,9.68
2022-10-29T21:30:39.836Z,9.55
2022-10-29T21:33:25.459Z,10.27
2022-10-29T21:36:14.227Z,9.00
2022-10-29T21:39:00.095Z,9.13
2022-10-29T21:41:45.610Z,9.02
2022-10-29T21:44:31.294Z,7.70
2022-10-29T21:47:16.940Z,10.82
2022-10-29T21:50:02.545Z,8.63
2022-10-29T21:52:48.034Z,9.77
2022-10-29T21:55:34.447Z,8.80
2022-10-29T21:58:19.559Z,8.15
2022-10-29T22:01:16.069Z,7.50
2022-10-29T22:04:01.763Z,6.93
2022-10-29T22:06:47.331Z,6.97
2022-10-29T22:09:32.773Z,6.78
2022-10-29T22:12:18.282Z,6.55
2022-10-29T22:15:04.429Z,7.07
2022-10-29T22:17:49.644Z,7.78
2022-10-29T22:20:35.187Z,5.47
2022-10-29T22:23:20.540Z,5.47
2022-10-29T22:26:06.414Z,6.80
2022-10-29T22:28:51.773Z,7.32
2022-10-29T22:31:37.322Z,7.03
2022-10-29T22:34:22.927Z,5.93
2022-10-29T22:37:08.303Z,4.60
2022-10-29T22:39:53.854Z,5.13
2022-10-29T22:42:39.170Z,5.07
2022-10-29T22:45:24.915Z,5.78
2022-10-29T22:48:10.467Z,6.07
2022-10-29T22:51:00.765Z,4.82
2022-10-29T22:53:47.167Z,5.43
2022-10-29T22:56:35.592Z,4.10
2022-10-29T22:59:21.035Z,4.75
2022-10-29T23:02:06.735Z,4.70
2022-10-29T23:04:52.354Z,4.97
2022-10-29T23:07:37.753Z,4.32
2022-10-29T23:10:23.216Z,4.05
2022-10-29T23:13:08.898Z,4.43
2022-10-29T23:15:54.669Z,5.20
2022-10-29T23:18:40.105Z,4.18
2022-10-29T23:21:25.995Z,5.65
2022-10-29T23:24:12.121Z,4.43
2022-10-29T23:26:57.746Z,3.97
2022-10-29T23:29:43.327Z,3.78
2022-10-29T23:32:28.830Z,4.70
2022-10-29T23:35:14.474Z,3.80
2022-10-29T23:38:00.462Z,4.18
2022-10-29T23:40:47.493Z,3.95
2022-10-29T23:43:33.056Z,3.60
2022-10-29T23:46:21.430Z,3.78
2022-10-29T23:49:06.888Z,3.38
2022-10-29T23:51:52.360Z,3.45
2022-10-29T23:54:39.262Z,3.80
2022-10-29T23:57:24.742Z,3.65
